sensor_id;sensor_type;location;lat;lon;timestamp;P1;durP1;ratioP1;P2;durP2;ratioP2
45728;SDS011;31439;53.512;10.206;2023-08-30T00:01:00;5.38;;;3.03;;
45728;SDS011;31439;53.512;10.206;2023-08-30T00:03:25;5.45;;;3.05;;
45728;SDS011;31439;53.512;10.206;2023-08-30T00:05:51;5.32;;;3.15;;
45728;SDS011;31439;53.512;10.206;2023-08-30T00:08:16;8.20;;;3.60;;
45728;SDS011;31439;53.512;10.206;2023-08-30T00:10:44;8.77;;;3.67;;
45728;SDS011;31439;53.512;10.206;2023-08-30T00:13:09;5.55;;;3.42;;
45728;SDS011;31439;53.512;10.206;2023-08-30T00:15:35;4.18;;;2.90;;
45728;SDS011;31439;53.512;10.206;2023-08-30T00:18:01;4.80;;;3.17;;
45728;SDS011;31439;53.512;10.206;2023-08-30T00:20:26;5.38;;;3.20;;
45728;SDS011;31439;53.512;10.206;2023-08-30T00:22:52;5.07;;;3.00;;
45728;SDS011;31439;53.512;10.206;2023-08-30T00:25:17;6.53;;;3.38;;
45728;SDS011;31439;53.512;10.206;2023-08-30T00:27:43;7.00;;;3.72;;
45728;SDS011;31439;53.512;10.206;2023-08-30T00:30:09;7.22;;;3.97;;
45728;SDS011;31439;53.512;10.206;2023-08-30T00:32:35;5.88;;;4.00;;
45728;SDS011;31439;53.512;10.206;2023-08-30T00:35:01;4.72;;;3.50;;
45728;SDS011;31439;53.512;10.206;2023-08-30T00:37:27;6.60;;;3.65;;
45728;SDS011;31439;53.512;10.206;2023-08-30T00:39:52;5.88;;;3.40;;
45728;SDS011;31439;53.512;10.206;2023-08-30T00:42:18;4.72;;;3.38;;
45728;SDS011;31439;53.512;10.206;2023-08-30T00:44:43;5.53;;;3.20;;
45728;SDS011;31439;53.512;10.206;2023-08-30T00:47:09;5.53;;;3.35;;
45728;SDS011;31439;53.512;10.206;2023-08-30T00:49:35;8.25;;;2.50;;
45728;SDS011;31439;53.512;10.206;2023-08-30T00:52:02;3.58;;;2.50;;
45728;SDS011;31439;53.512;10.206;2023-08-30T00:54:30;3.85;;;2.50;;
45728;SDS011;31439;53.512;10.206;2023-08-30T00:56:56;4.53;;;2.55;;
45728;SDS011;31439;53.512;10.206;2023-08-30T00:59:22;5.28;;;2.90;;
45728;SDS011;31439;53.512;10.206;2023-08-30T01:01:48;4.95;;;2.63;;
45728;SDS011;31439;53.512;10.206;2023-08-30T01:04:14;5.03;;;2.95;;
45728;SDS011;31439;53.512;10.206;2023-08-30T01:06:40;4.13;;;2.90;;
45728;SDS011;31439;53.512;10.206;2023-08-30T01:09:06;5.18;;;3.10;;
45728;SDS011;31439;53.512;10.206;2023-08-30T01:11:43;3.92;;;2.50;;
45728;SDS011;31439;53.512;10.206;2023-08-30T01:14:34;4.72;;;2.90;;
45728;SDS011;31439;53.512;10.206;2023-08-30T01:17:05;4.65;;;2.67;;
45728;SDS011;31439;53.512;10.206;2023-08-30T01:19:41;7.00;;;2.90;;
45728;SDS011;31439;53.512;10.206;2023-08-30T01:22:13;8.68;;;3.58;;
45728;SDS011;31439;53.512;10.206;2023-08-30T01:27:37;4.57;;;2.67;;
45728;SDS011;31439;53.512;10.206;2023-08-30T01:30:05;4.45;;;2.88;;
45728;SDS011;31439;53.512;10.206;2023-08-30T01:32:34;6.38;;;2.95;;
45728;SDS011;31439;53.512;10.206;2023-08-30T01:35:01;5.15;;;3.30;;
45728;SDS011;31439;53.512;10.206;2023-08-30T01:37:28;4.10;;;3.05;;
45728;SDS011;31439;53.512;10.206;2023-08-30T01:39:55;5.00;;;3.45;;
45728;SDS011;31439;53.512;10.206;2023-08-30T01:42:25;5.20;;;3.50;;
45728;SDS011;31439;53.512;10.206;2023-08-30T01:44:51;5.25;;;3.42;;
45728;SDS011;31439;53.512;10.206;2023-08-30T01:47:22;6.75;;;4.05;;
45728;SDS011;31439;53.512;10.206;2023-08-30T01:49:50;7.63;;;3.72;;
45728;SDS011;31439;53.512;10.206;2023-08-30T01:52:17;5.85;;;4.05;;
45728;SDS011;31439;53.512;10.206;2023-08-30T01:54:43;6.38;;;3.58;;
45728;SDS011;31439;53.512;10.206;2023-08-30T01:57:10;6.03;;;3.78;;
45728;SDS011;31439;53.512;10.206;2023-08-30T01:59:36;5.88;;;3.75;;
45728;SDS011;31439;53.512;10.206;2023-08-30T02:02:02;5.65;;;3.53;;
45728;SDS011;31439;53.512;10.206;2023-08-30T02:04:29;7.53;;;3.67;;
45728;SDS011;31439;53.512;10.206;2023-08-30T02:07:12;6.43;;;3.90;;
45728;SDS011;31439;53.512;10.206;2023-08-30T02:12:32;7.05;;;4.40;;
45728;SDS011;31439;53.512;10.206;2023-08-30T02:15:01;7.35;;;4.65;;
45728;SDS011;31439;53.512;10.206;2023-08-30T02:17:28;7.28;;;4.07;;
45728;SDS011;31439;53.512;10.206;2023-08-30T02:19:55;9.23;;;4.22;;
45728;SDS011;31439;53.512;10.206;2023-08-30T02:22:21;6.80;;;4.22;;
45728;SDS011;31439;53.512;10.206;2023-08-30T02:24:46;7.68;;;4.20;;
45728;SDS011;31439;53.512;10.206;2023-08-30T02:27:12;5.82;;;4.10;;
45728;SDS011;31439;53.512;10.206;2023-08-30T02:29:37;6.50;;;3.80;;
45728;SDS011;31439;53.512;10.206;2023-08-30T02:32:03;5.35;;;3.65;;
45728;SDS011;31439;53.512;10.206;2023-08-30T02:34:29;6.03;;;3.70;;
45728;SDS011;31439;53.512;10.206;2023-08-30T02:36:54;6.18;;;3.58;;
45728;SDS011;31439;53.512;10.206;2023-08-30T02:39:20;5.10;;;3.88;;
45728;SDS011;31439;53.512;10.206;2023-08-30T02:41:46;6.72;;;3.95;;
45728;SDS011;31439;53.512;10.206;2023-08-30T02:44:12;7.88;;;4.53;;
45728;SDS011;31439;53.512;10.206;2023-08-30T02:46:37;6.35;;;4.50;;
45728;SDS011;31439;53.512;10.206;2023-08-30T02:49:03;6.30;;;5.00;;
45728;SDS011;31439;53.512;10.206;2023-08-30T02:51:29;9.23;;;5.30;;
45728;SDS011;31439;53.512;10.206;2023-08-30T02:53:54;6.47;;;5.00;;
45728;SDS011;31439;53.512;10.206;2023-08-30T02:56:20;7.43;;;4.80;;
45728;SDS011;31439;53.512;10.206;2023-08-30T02:58:45;6.43;;;4.45;;
45728;SDS011;31439;53.512;10.206;2023-08-30T03:01:11;6.55;;;4.30;;
45728;SDS011;31439;53.512;10.206;2023-08-30T03:03:37;6.10;;;4.32;;
45728;SDS011;31439;53.512;10.206;2023-08-30T03:06:05;8.13;;;4.22;;
45728;SDS011;31439;53.512;10.206;2023-08-30T03:08:33;6.00;;;4.60;;
45728;SDS011;31439;53.512;10.206;2023-08-30T03:11:12;5.65;;;4.53;;
45728;SDS011;31439;53.512;10.206;2023-08-30T03:13:40;5.80;;;4.50;;
45728;SDS011;31439;53.512;10.206;2023-08-30T03:16:13;6.38;;;5.32;;
45728;SDS011;31439;53.512;10.206;2023-08-30T03:18:40;7.22;;;5.28;;
45728;SDS011;31439;53.512;10.206;2023-08-30T03:21:06;6.68;;;4.88;;
45728;SDS011;31439;53.512;10.206;2023-08-30T03:23:35;6.50;;;5.30;;
45728;SDS011;31439;53.512;10.206;2023-08-30T03:26:14;7.20;;;5.22;;
45728;SDS011;31439;53.512;10.206;2023-08-30T03:28:41;7.53;;;5.55;;
45728;SDS011;31439;53.512;10.206;2023-08-30T03:31:20;8.52;;;6.13;;
45728;SDS011;31439;53.512;10.206;2023-08-30T03:33:47;7.70;;;6.18;;
45728;SDS011;31439;53.512;10.206;2023-08-30T03:36:17;7.38;;;5.78;;
45728;SDS011;31439;53.512;10.206;2023-08-30T03:38:43;7.60;;;5.90;;
45728;SDS011;31439;53.512;10.206;2023-08-30T03:41:10;7.55;;;6.68;;
45728;SDS011;31439;53.512;10.206;2023-08-30T03:43:36;8.52;;;6.47;;
45728;SDS011;31439;53.512;10.206;2023-08-30T03:46:02;6.88;;;6.05;;
45728;SDS011;31439;53.512;10.206;2023-08-30T03:48:28;11.80;;;7.28;;
45728;SDS011;31439;53.512;10.206;2023-08-30T03:50:54;9.35;;;6.75;;
45728;SDS011;31439;53.512;10.206;2023-08-30T03:53:20;7.00;;;5.88;;
45728;SDS011;31439;53.512;10.206;2023-08-30T03:55:46;9.57;;;6.80;;
45728;SDS011;31439;53.512;10.206;2023-08-30T03:58:12;7.88;;;6.55;;
45728;SDS011;31439;53.512;10.206;2023-08-30T04:00:38;7.55;;;6.28;;
45728;SDS011;31439;53.512;10.206;2023-08-30T04:03:08;7.82;;;6.32;;
45728;SDS011;31439;53.512;10.206;2023-08-30T04:05:35;10.13;;;6.88;;
45728;SDS011;31439;53.512;10.206;2023-08-30T04:08:05;9.32;;;6.93;;
45728;SDS011;31439;53.512;10.206;2023-08-30T04:10:38;21.67;;;7.22;;
45728;SDS011;31439;53.512;10.206;2023-08-30T04:13:05;8.90;;;6.75;;
45728;SDS011;31439;53.512;10.206;2023-08-30T04:15:34;8.45;;;6.68;;
45728;SDS011;31439;53.512;10.206;2023-08-30T04:18:01;7.63;;;6.70;;
45728;SDS011;31439;53.512;10.206;2023-08-30T04:20:27;9.27;;;6.93;;
45728;SDS011;31439;53.512;10.206;2023-08-30T04:22:52;8.73;;;6.85;;
45728;SDS011;31439;53.512;10.206;2023-08-30T04:25:20;8.57;;;6.70;;
45728;SDS011;31439;53.512;10.206;2023-08-30T04:27:45;8.98;;;6.30;;
45728;SDS011;31439;53.512;10.206;2023-08-30T04:30:11;7.25;;;6.03;;
45728;SDS011;31439;53.512;10.206;2023-08-30T04:32:37;6.85;;;6.15;;
45728;SDS011;31439;53.512;10.206;2023-08-30T04:35:03;8.77;;;6.28;;
45728;SDS011;31439;53.512;10.206;2023-08-30T04:37:31;9.02;;;6.88;;
45728;SDS011;31439;53.512;10.206;2023-08-30T04:39:57;8.38;;;6.82;;
45728;SDS011;31439;53.512;10.206;2023-08-30T04:42:23;10.38;;;6.90;;
45728;SDS011;31439;53.512;10.206;2023-08-30T04:44:49;12.35;;;6.78;;
45728;SDS011;31439;53.512;10.206;2023-08-30T04:47:16;10.82;;;6.68;;
45728;SDS011;31439;53.512;10.206;2023-08-30T04:49:41;9.23;;;6.90;;
45728;SDS011;31439;53.512;10.206;2023-08-30T04:52:07;9.93;;;6.82;;
45728;SDS011;31439;53.512;10.206;2023-08-30T04:54:32;9.48;;;6.40;;
45728;SDS011;31439;53.512;10.206;2023-08-30T04:56:58;9.60;;;6.30;;
45728;SDS011;31439;53.512;10.206;2023-08-30T04:59:24;12.70;;;6.03;;
45728;SDS011;31439;53.512;10.206;2023-08-30T05:01:49;12.35;;;6.32;;
45728;SDS011;31439;53.512;10.206;2023-08-30T05:04:16;10.07;;;6.47;;
45728;SDS011;31439;53.512;10.206;2023-08-30T05:06:42;8.07;;;6.15;;
45728;SDS011;31439;53.512;10.206;2023-08-30T05:09:08;8.60;;;7.03;;
45728;SDS011;31439;53.512;10.206;2023-08-30T05:11:33;7.50;;;6.07;;
45728;SDS011;31439;53.512;10.206;2023-08-30T05:13:59;7.47;;;5.80;;
45728;SDS011;31439;53.512;10.206;2023-08-30T05:16:25;8.93;;;6.05;;
45728;SDS011;31439;53.512;10.206;2023-08-30T05:18:50;9.93;;;5.55;;
45728;SDS011;31439;53.512;10.206;2023-08-30T05:21:16;10.82;;;6.03;;
45728;SDS011;31439;53.512;10.206;2023-08-30T05:23:42;6.65;;;5.82;;
45728;SDS011;31439;53.512;10.206;2023-08-30T05:26:08;13.80;;;6.88;;
45728;SDS011;31439;53.512;10.206;2023-08-30T05:28:35;9.98;;;6.07;;
45728;SDS011;31439;53.512;10.206;2023-08-30T05:31:00;9.52;;;6.10;;
45728;SDS011;31439;53.512;10.206;2023-08-30T05:33:26;7.72;;;5.60;;
45728;SDS011;31439;53.512;10.206;2023-08-30T05:35:51;9.95;;;6.50;;
45728;SDS011;31439;53.512;10.206;2023-08-30T05:38:17;8.00;;;5.55;;
45728;SDS011;31439;53.512;10.206;2023-08-30T05:40:43;8.43;;;5.65;;
45728;SDS011;31439;53.512;10.206;2023-08-30T05:43:10;7.55;;;5.85;;
45728;SDS011;31439;53.512;10.206;2023-08-30T05:45:36;9.95;;;5.97;;
45728;SDS011;31439;53.512;10.206;2023-08-30T05:48:02;9.07;;;6.15;;
45728;SDS011;31439;53.512;10.206;2023-08-30T05:50:28;7.38;;;5.75;;
45728;SDS011;31439;53.512;10.206;2023-08-30T05:52:53;6.85;;;5.57;;
45728;SDS011;31439;53.512;10.206;2023-08-30T05:55:19;8.05;;;5.78;;
45728;SDS011;31439;53.512;10.206;2023-08-30T05:57:45;7.55;;;5.68;;
45728;SDS011;31439;53.512;10.206;2023-08-30T06:00:11;8.82;;;5.75;;
45728;SDS011;31439;53.512;10.206;2023-08-30T06:02:38;8.55;;;5.20;;
45728;SDS011;31439;53.512;10.206;2023-08-30T06:05:05;10.73;;;5.53;;
45728;SDS011;31439;53.512;10.206;2023-08-30T06:07:31;6.65;;;5.65;;
45728;SDS011;31439;53.512;10.206;2023-08-30T06:09:56;8.80;;;6.05;;
45728;SDS011;31439;53.512;10.206;2023-08-30T06:12:22;6.72;;;5.68;;
45728;SDS011;31439;53.512;10.206;2023-08-30T06:14:47;6.43;;;5.10;;
45728;SDS011;31439;53.512;10.206;2023-08-30T06:17:17;6.30;;;5.43;;
45728;SDS011;31439;53.512;10.206;2023-08-30T06:19:44;7.65;;;5.95;;
45728;SDS011;31439;53.512;10.206;2023-08-30T06:22:13;6.55;;;5.70;;
45728;SDS011;31439;53.512;10.206;2023-08-30T06:24:39;7.70;;;5.63;;
45728;SDS011;31439;53.512;10.206;2023-08-30T06:27:05;12.93;;;5.57;;
45728;SDS011;31439;53.512;10.206;2023-08-30T06:29:30;6.85;;;5.78;;
45728;SDS011;31439;53.512;10.206;2023-08-30T06:31:56;7.43;;;5.93;;
45728;SDS011;31439;53.512;10.206;2023-08-30T06:34:22;6.78;;;5.30;;
45728;SDS011;31439;53.512;10.206;2023-08-30T06:36:48;6.78;;;5.25;;
45728;SDS011;31439;53.512;10.206;2023-08-30T06:39:13;7.35;;;5.53;;
45728;SDS011;31439;53.512;10.206;2023-08-30T06:41:39;9.20;;;5.40;;
45728;SDS011;31439;53.512;10.206;2023-08-30T06:44:05;10.20;;;6.22;;
45728;SDS011;31439;53.512;10.206;2023-08-30T06:46:30;8.43;;;5.47;;
45728;SDS011;31439;53.512;10.206;2023-08-30T06:48:56;8.18;;;5.55;;
45728;SDS011;31439;53.512;10.206;2023-08-30T06:51:22;8.45;;;5.93;;
45728;SDS011;31439;53.512;10.206;2023-08-30T06:53:47;7.13;;;5.88;;
45728;SDS011;31439;53.512;10.206;2023-08-30T06:56:13;9.13;;;6.07;;
45728;SDS011;31439;53.512;10.206;2023-08-30T06:58:38;7.03;;;5.82;;
45728;SDS011;31439;53.512;10.206;2023-08-30T07:01:04;7.45;;;5.93;;
45728;SDS011;31439;53.512;10.206;2023-08-30T07:03:30;7.95;;;6.43;;
45728;SDS011;31439;53.512;10.206;2023-08-30T07:05:56;9.98;;;6.40;;
45728;SDS011;31439;53.512;10.206;2023-08-30T07:08:21;8.05;;;6.03;;
45728;SDS011;31439;53.512;10.206;2023-08-30T07:10:47;8.50;;;6.15;;
45728;SDS011;31439;53.512;10.206;2023-08-30T07:13:13;8.57;;;7.00;;
45728;SDS011;31439;53.512;10.206;2023-08-30T07:15:39;9.18;;;6.30;;
45728;SDS011;31439;53.512;10.206;2023-08-30T07:18:06;10.25;;;6.60;;
45728;SDS011;31439;53.512;10.206;2023-08-30T07:20:32;7.35;;;6.10;;
45728;SDS011;31439;53.512;10.206;2023-08-30T07:22:58;9.25;;;6.82;;
45728;SDS011;31439;53.512;10.206;2023-08-30T07:25:24;9.52;;;6.72;;
45728;SDS011;31439;53.512;10.206;2023-08-30T07:27:49;7.90;;;6.13;;
45728;SDS011;31439;53.512;10.206;2023-08-30T07:30:15;9.82;;;7.00;;
45728;SDS011;31439;53.512;10.206;2023-08-30T07:32:41;8.02;;;6.90;;
45728;SDS011;31439;53.512;10.206;2023-08-30T07:35:07;8.88;;;6.68;;
45728;SDS011;31439;53.512;10.206;2023-08-30T07:37:33;7.93;;;6.93;;
45728;SDS011;31439;53.512;10.206;2023-08-30T07:39:59;12.13;;;6.03;;
45728;SDS011;31439;53.512;10.206;2023-08-30T07:42:25;10.45;;;6.88;;
45728;SDS011;31439;53.512;10.206;2023-08-30T07:44:51;8.85;;;6.53;;
45728;SDS011;31439;53.512;10.206;2023-08-30T07:47:16;12.00;;;7.68;;
45728;SDS011;31439;53.512;10.206;2023-08-30T07:49:42;16.08;;;7.85;;
45728;SDS011;31439;53.512;10.206;2023-08-30T07:52:08;11.20;;;7.53;;
45728;SDS011;31439;53.512;10.206;2023-08-30T07:54:36;10.52;;;7.45;;
45728;SDS011;31439;53.512;10.206;2023-08-30T07:57:03;13.52;;;7.55;;
45728;SDS011;31439;53.512;10.206;2023-08-30T07:59:29;10.18;;;7.22;;
45728;SDS011;31439;53.512;10.206;2023-08-30T08:01:57;9.98;;;7.47;;
45728;SDS011;31439;53.512;10.206;2023-08-30T08:04:23;8.32;;;6.78;;
45728;SDS011;31439;53.512;10.206;2023-08-30T08:06:48;8.95;;;6.63;;
45728;SDS011;31439;53.512;10.206;2023-08-30T08:09:14;9.98;;;7.38;;
45728;SDS011;31439;53.512;10.206;2023-08-30T08:11:40;8.52;;;6.72;;
45728;SDS011;31439;53.512;10.206;2023-08-30T08:14:08;11.18;;;7.32;;
45728;SDS011;31439;53.512;10.206;2023-08-30T08:16:35;9.27;;;6.38;;
45728;SDS011;31439;53.512;10.206;2023-08-30T08:19:01;9.02;;;7.40;;
45728;SDS011;31439;53.512;10.206;2023-08-30T08:21:26;11.73;;;7.57;;
45728;SDS011;31439;53.512;10.206;2023-08-30T08:23:52;9.77;;;7.20;;
45728;SDS011;31439;53.512;10.206;2023-08-30T08:26:17;9.68;;;7.15;;
45728;SDS011;31439;53.512;10.206;2023-08-30T08:28:43;12.02;;;7.90;;
45728;SDS011;31439;53.512;10.206;2023-08-30T08:31:09;9.07;;;7.30;;
45728;SDS011;31439;53.512;10.206;2023-08-30T08:33:35;9.35;;;7.68;;
45728;SDS011;31439;53.512;10.206;2023-08-30T08:36:01;11.48;;;8.05;;
45728;SDS011;31439;53.512;10.206;2023-08-30T08:38:27;11.02;;;8.38;;
45728;SDS011;31439;53.512;10.206;2023-08-30T08:40:53;9.82;;;7.65;;
45728;SDS011;31439;53.512;10.206;2023-08-30T08:43:28;10.95;;;8.00;;
45728;SDS011;31439;53.512;10.206;2023-08-30T08:45:56;11.98;;;7.97;;
45728;SDS011;31439;53.512;10.206;2023-08-30T08:48:25;10.98;;;8.70;;
45728;SDS011;31439;53.512;10.206;2023-08-30T08:50:53;12.15;;;8.77;;
45728;SDS011;31439;53.512;10.206;2023-08-30T08:53:19;16.48;;;9.43;;
45728;SDS011;31439;53.512;10.206;2023-08-30T08:55:46;11.23;;;8.75;;
45728;SDS011;31439;53.512;10.206;2023-08-30T08:58:13;12.88;;;9.02;;
45728;SDS011;31439;53.512;10.206;2023-08-30T09:00:40;11.88;;;8.85;;
45728;SDS011;31439;53.512;10.206;2023-08-30T09:03:07;10.38;;;8.77;;
45728;SDS011;31439;53.512;10.206;2023-08-30T09:05:35;11.35;;;8.52;;
45728;SDS011;31439;53.512;10.206;2023-08-30T09:08:02;10.00;;;8.70;;
45728;SDS011;31439;53.512;10.206;2023-08-30T09:10:29;11.00;;;8.35;;
45728;SDS011;31439;53.512;10.206;2023-08-30T09:12:56;9.68;;;8.13;;
45728;SDS011;31439;53.512;10.206;2023-08-30T09:15:34;13.25;;;7.22;;
45728;SDS011;31439;53.512;10.206;2023-08-30T09:18:02;12.10;;;8.82;;
45728;SDS011;31439;53.512;10.206;2023-08-30T09:20:28;13.27;;;9.27;;
45728;SDS011;31439;53.512;10.206;2023-08-30T09:22:54;11.75;;;8.80;;
45728;SDS011;31439;53.512;10.206;2023-08-30T09:25:23;19.05;;;8.52;;
45728;SDS011;31439;53.512;10.206;2023-08-30T09:27:50;13.82;;;7.72;;
45728;SDS011;31439;53.512;10.206;2023-08-30T09:30:22;10.35;;;8.15;;
45728;SDS011;31439;53.512;10.206;2023-08-30T09:32:48;14.15;;;8.57;;
45728;SDS011;31439;53.512;10.206;2023-08-30T09:35:13;12.18;;;7.93;;
45728;SDS011;31439;53.512;10.206;2023-08-30T09:37:39;12.65;;;8.43;;
45728;SDS011;31439;53.512;10.206;2023-08-30T09:40:05;15.32;;;8.43;;
45728;SDS011;31439;53.512;10.206;2023-08-30T09:42:31;9.02;;;7.63;;
45728;SDS011;31439;53.512;10.206;2023-08-30T09:44:57;10.50;;;7.00;;
45728;SDS011;31439;53.512;10.206;2023-08-30T09:47:25;10.15;;;7.00;;
45728;SDS011;31439;53.512;10.206;2023-08-30T09:49:52;9.50;;;7.05;;
45728;SDS011;31439;53.512;10.206;2023-08-30T09:52:20;9.80;;;6.60;;
45728;SDS011;31439;53.512;10.206;2023-08-30T09:54:48;20.02;;;6.82;;
45728;SDS011;31439;53.512;10.206;2023-08-30T09:57:16;14.80;;;6.82;;
45728;SDS011;31439;53.512;10.206;2023-08-30T09:59:42;12.35;;;7.03;;
45728;SDS011;31439;53.512;10.206;2023-08-30T10:02:07;9.73;;;5.68;;
45728;SDS011;31439;53.512;10.206;2023-08-30T10:04:35;5.53;;;3.40;;
45728;SDS011;31439;53.512;10.206;2023-08-30T10:07:04;9.25;;;5.60;;
45728;SDS011;31439;53.512;10.206;2023-08-30T10:09:34;11.18;;;5.75;;
45728;SDS011;31439;53.512;10.206;2023-08-30T10:12:03;9.23;;;6.00;;
45728;SDS011;31439;53.512;10.206;2023-08-30T10:14:30;7.20;;;5.15;;
45728;SDS011;31439;53.512;10.206;2023-08-30T10:17:02;8.88;;;5.30;;
45728;SDS011;31439;53.512;10.206;2023-08-30T10:19:28;7.00;;;5.68;;
45728;SDS011;31439;53.512;10.206;2023-08-30T10:22:06;8.57;;;4.75;;
45728;SDS011;31439;53.512;10.206;2023-08-30T10:27:29;8.13;;;4.95;;
45728;SDS011;31439;53.512;10.206;2023-08-30T10:29:56;6.45;;;3.90;;
45728;SDS011;31439;53.512;10.206;2023-08-30T10:32:24;5.45;;;3.45;;
45728;SDS011;31439;53.512;10.206;2023-08-30T10:34:50;7.80;;;4.00;;
45728;SDS011;31439;53.512;10.206;2023-08-30T10:37:21;4.65;;;3.30;;
45728;SDS011;31439;53.512;10.206;2023-08-30T10:39:51;6.45;;;4.40;;
45728;SDS011;31439;53.512;10.206;2023-08-30T10:42:21;4.20;;;3.40;;
45728;SDS011;31439;53.512;10.206;2023-08-30T10:44:51;6.53;;;3.60;;
45728;SDS011;31439;53.512;10.206;2023-08-30T10:47:25;5.97;;;3.63;;
45728;SDS011;31439;53.512;10.206;2023-08-30T10:49:54;8.68;;;3.45;;
45728;SDS011;31439;53.512;10.206;2023-08-30T10:52:20;7.28;;;3.03;;
45728;SDS011;31439;53.512;10.206;2023-08-30T10:54:46;5.20;;;3.15;;
45728;SDS011;31439;53.512;10.206;2023-08-30T10:57:13;5.43;;;2.85;;
45728;SDS011;31439;53.512;10.206;2023-08-30T10:59:39;4.82;;;2.90;;
45728;SDS011;31439;53.512;10.206;2023-08-30T11:02:05;7.90;;;3.67;;
45728;SDS011;31439;53.512;10.206;2023-08-30T11:04:31;5.13;;;3.33;;
45728;SDS011;31439;53.512;10.206;2023-08-30T11:06:57;4.60;;;3.00;;
45728;SDS011;31439;53.512;10.206;2023-08-30T11:09:24;5.93;;;3.03;;
45728;SDS011;31439;53.512;10.206;2023-08-30T11:11:50;6.28;;;3.10;;
45728;SDS011;31439;53.512;10.206;2023-08-30T11:14:16;7.07;;;3.28;;
45728;SDS011;31439;53.512;10.206;2023-08-30T11:16:44;4.85;;;3.35;;
45728;SDS011;31439;53.512;10.206;2023-08-30T11:19:10;6.05;;;3.50;;
45728;SDS011;31439;53.512;10.206;2023-08-30T11:21:37;6.03;;;3.22;;
45728;SDS011;31439;53.512;10.206;2023-08-30T11:24:04;10.15;;;3.80;;
45728;SDS011;31439;53.512;10.206;2023-08-30T11:26:30;6.85;;;2.88;;
45728;SDS011;31439;53.512;10.206;2023-08-30T11:28:56;6.65;;;4.00;;
45728;SDS011;31439;53.512;10.206;2023-08-30T11:31:22;5.22;;;3.10;;
45728;SDS011;31439;53.512;10.206;2023-08-30T11:33:51;6.35;;;3.47;;
45728;SDS011;31439;53.512;10.206;2023-08-30T11:36:18;7.78;;;3.75;;
45728;SDS011;31439;53.512;10.206;2023-08-30T11:38:46;7.60;;;3.58;;
45728;SDS011;31439;53.512;10.206;2023-08-30T11:41:12;4.93;;;3.25;;
45728;SDS011;31439;53.512;10.206;2023-08-30T11:43:38;6.22;;;3.50;;
45728;SDS011;31439;53.512;10.206;2023-08-30T11:46:05;16.45;;;3.55;;
45728;SDS011;31439;53.512;10.206;2023-08-30T11:48:33;9.85;;;3.58;;
45728;SDS011;31439;53.512;10.206;2023-08-30T11:51:00;4.72;;;2.90;;
45728;SDS011;31439;53.512;10.206;2023-08-30T11:53:26;8.75;;;2.85;;
45728;SDS011;31439;53.512;10.206;2023-08-30T11:55:52;6.13;;;2.95;;
45728;SDS011;31439;53.512;10.206;2023-08-30T11:58:18;6.00;;;3.10;;
45728;SDS011;31439;53.512;10.206;2023-08-30T12:00:44;7.95;;;2.92;;
45728;SDS011;31439;53.512;10.206;2023-08-30T12:03:13;6.85;;;3.08;;
45728;SDS011;31439;53.512;10.206;2023-08-30T12:05:46;5.82;;;2.90;;
45728;SDS011;31439;53.512;10.206;2023-08-30T12:08:45;5.05;;;2.55;;
45728;SDS011;31439;53.512;10.206;2023-08-30T12:11:05;8.07;;;2.88;;
45728;SDS011;31439;53.512;10.206;2023-08-30T12:13:34;6.13;;;2.95;;
45728;SDS011;31439;53.512;10.206;2023-08-30T12:16:00;7.32;;;2.95;;
45728;SDS011;31439;53.512;10.206;2023-08-30T12:18:27;6.20;;;2.90;;
45728;SDS011;31439;53.512;10.206;2023-08-30T12:21:00;7.63;;;3.10;;
45728;SDS011;31439;53.512;10.206;2023-08-30T12:23:31;6.75;;;2.65;;
45728;SDS011;31439;53.512;10.206;2023-08-30T12:26:01;4.85;;;3.35;;
45728;SDS011;31439;53.512;10.206;2023-08-30T12:28:31;4.07;;;2.83;;
45728;SDS011;31439;53.512;10.206;2023-08-30T12:31:04;6.63;;;3.58;;
45728;SDS011;31439;53.512;10.206;2023-08-30T12:33:30;7.15;;;3.33;;
45728;SDS011;31439;53.512;10.206;2023-08-30T12:35:56;5.15;;;3.05;;
45728;SDS011;31439;53.512;10.206;2023-08-30T12:38:23;6.32;;;3.00;;
45728;SDS011;31439;53.512;10.206;2023-08-30T12:40:53;4.63;;;2.85;;
45728;SDS011;31439;53.512;10.206;2023-08-30T12:43:19;5.72;;;3.50;;
45728;SDS011;31439;53.512;10.206;2023-08-30T12:45:46;5.35;;;3.38;;
45728;SDS011;31439;53.512;10.206;2023-08-30T12:48:13;8.52;;;3.80;;
45728;SDS011;31439;53.512;10.206;2023-08-30T12:50:41;6.57;;;3.33;;
45728;SDS011;31439;53.512;10.206;2023-08-30T12:53:08;7.32;;;3.60;;
45728;SDS011;31439;53.512;10.206;2023-08-30T12:55:34;5.25;;;2.92;;
45728;SDS011;31439;53.512;10.206;2023-08-30T12:58:00;5.95;;;3.58;;
45728;SDS011;31439;53.512;10.206;2023-08-30T13:00:26;6.13;;;3.25;;
45728;SDS011;31439;53.512;10.206;2023-08-30T13:02:51;4.68;;;2.78;;
45728;SDS011;31439;53.512;10.206;2023-08-30T13:05:17;5.57;;;2.90;;
45728;SDS011;31439;53.512;10.206;2023-08-30T13:07:43;6.85;;;2.85;;
45728;SDS011;31439;53.512;10.206;2023-08-30T13:10:09;4.22;;;3.05;;
45728;SDS011;31439;53.512;10.206;2023-08-30T13:12:35;6.63;;;3.00;;
45728;SDS011;31439;53.512;10.206;2023-08-30T13:15:01;5.28;;;2.90;;
45728;SDS011;31439;53.512;10.206;2023-08-30T13:17:27;4.55;;;3.00;;
45728;SDS011;31439;53.512;10.206;2023-08-30T13:19:53;7.53;;;2.97;;
45728;SDS011;31439;53.512;10.206;2023-08-30T13:22:18;5.93;;;3.22;;
45728;SDS011;31439;53.512;10.206;2023-08-30T13:24:44;5.63;;;3.30;;
45728;SDS011;31439;53.512;10.206;2023-08-30T13:27:10;5.97;;;3.78;;
45728;SDS011;31439;53.512;10.206;2023-08-30T13:29:36;6.85;;;3.33;;
45728;SDS011;31439;53.512;10.206;2023-08-30T13:32:01;6.70;;;3.35;;
45728;SDS011;31439;53.512;10.206;2023-08-30T13:34:28;6.30;;;3.03;;
45728;SDS011;31439;53.512;10.206;2023-08-30T13:36:53;4.40;;;2.90;;
45728;SDS011;31439;53.512;10.206;2023-08-30T13:39:19;5.55;;;3.03;;
45728;SDS011;31439;53.512;10.206;2023-08-30T13:41:45;5.03;;;2.83;;
45728;SDS011;31439;53.512;10.206;2023-08-30T13:44:14;7.13;;;3.70;;
45728;SDS011;31439;53.512;10.206;2023-08-30T13:46:40;4.65;;;3.03;;
45728;SDS011;31439;53.512;10.206;2023-08-30T13:49:06;5.75;;;3.28;;
45728;SDS011;31439;53.512;10.206;2023-08-30T13:51:32;5.43;;;3.55;;
45728;SDS011;31439;53.512;10.206;2023-08-30T13:53:58;10.73;;;3.00;;
45728;SDS011;31439;53.512;10.206;2023-08-30T13:56:23;5.55;;;3.05;;
45728;SDS011;31439;53.512;10.206;2023-08-30T13:58:49;5.63;;;2.97;;
45728;SDS011;31439;53.512;10.206;2023-08-30T14:01:15;4.68;;;2.88;;
45728;SDS011;31439;53.512;10.206;2023-08-30T14:03:41;6.32;;;2.88;;
45728;SDS011;31439;53.512;10.206;2023-08-30T14:06:07;4.57;;;3.40;;
45728;SDS011;31439;53.512;10.206;2023-08-30T14:08:33;7.25;;;2.88;;
45728;SDS011;31439;53.512;10.206;2023-08-30T14:10:59;4.90;;;2.70;;
45728;SDS011;31439;53.512;10.206;2023-08-30T14:13:24;7.15;;;3.60;;
45728;SDS011;31439;53.512;10.206;2023-08-30T14:15:50;4.78;;;3.20;;
45728;SDS011;31439;53.512;10.206;2023-08-30T14:18:15;7.45;;;3.10;;
45728;SDS011;31439;53.512;10.206;2023-08-30T14:20:42;4.40;;;3.05;;
45728;SDS011;31439;53.512;10.206;2023-08-30T14:23:08;6.10;;;3.25;;
45728;SDS011;31439;53.512;10.206;2023-08-30T14:25:34;7.45;;;3.30;;
45728;SDS011;31439;53.512;10.206;2023-08-30T14:28:00;8.82;;;3.65;;
45728;SDS011;31439;53.512;10.206;2023-08-30T14:30:26;6.57;;;3.60;;
45728;SDS011;31439;53.512;10.206;2023-08-30T14:32:52;5.30;;;2.88;;
45728;SDS011;31439;53.512;10.206;2023-08-30T14:35:18;4.88;;;2.85;;
45728;SDS011;31439;53.512;10.206;2023-08-30T14:37:45;5.05;;;3.08;;
45728;SDS011;31439;53.512;10.206;2023-08-30T14:40:12;7.03;;;2.97;;